Time;durP1;ratioP1;P1;durP2;ratioP2;P2;SDS_P1;SDS_P2;PMS_P1;PMS_P2;Temp;Humidity;BMP_temperature;BMP_pressure;BME280_temperature;BME280_humidity;BME280_pressure;Samples;Min_cycle;Max_cycle;Signal;HPM_P1;HPM_P2
2022/08/11 00:00:11;;;;;;;;;;;;;;;;;;1020154;28;3331;-49
2022/08/11 00:01:05;;;;;;;;;;;;;;;;;;1025698;28;2722;-48
2022/08/11 00:01:36;;;;;;;;;;;;;;;;;;1025790;28;2090;-49
2022/08/11 00:02:06;;;;;;;;;;;;;;;;;;1026143;28;1635;-50
2022/08/11 00:02:38;;;;;;;;;;;;;;;;;;1026129;28;1973;-52
2022/08/11 00:03:10;;;;;;;;;;;;;;;;;;1024974;28;3281;-49
2022/08/11 00:03:44;;;;;;;;;;;;;;;;;;1020924;28;3351;-48
2022/08/11 00:04:15;;;;;;;;;;;;;;;;;;1020827;28;2579;-49
2022/08/11 00:04:45;;;;;;;;;;;;;;;;;;1021721;28;3035;-48
2022/08/11 00:05:18;;;;;;;;;;;;;;;;;;1020966;28;2121;-49
2022/08/11 00:05:54;;;;;;;;;;;;;;;;;;1025781;28;1607;-49
2022/08/11 00:06:37;;;;;;;;;;;;;;;;;;1024495;28;2939;-50
2022/08/11 00:07:13;;;;;;;;;;;;;;;;;;1024941;28;2894;-50
2022/08/11 00:07:46;;;;;;;;;;;;;;;;;;1020950;28;3119;-47
2022/08/11 00:08:20;;;;;;;;;;;;;;;;;;1021632;28;1365;-51
2022/08/11 00:08:51;;;;;;;;;;;;;;;;;;1021216;28;1982;-49
2022/08/11 00:09:23;;;;;;;;;;;;;;;;;;1022873;28;1711;-50
2022/08/11 00:09:53;;;;;;;;;;;;;;;;;;1026375;28;1968;-48
2022/08/11 00:10:24;;;;;;;;;;;;;;;;;;1025593;28;2098;-49
2022/08/11 00:10:57;;;;;;;;;;;;;;;;;;1025768;28;1613;-50
2022/08/11 00:11:51;;;;;;;;;;;;;;;;;;1025143;28;1720;-48
2022/08/11 00:12:21;;;;;;;;;;;;;;;;;;1017900;28;1657;-49
2022/08/11 00:12:55;;;;;;;;;;;;;;;;;;1024501;28;3016;-50
2022/08/11 00:13:44;;;;;;;;;;;;;;;;;;1025992;28;2696;-50
2022/08/11 00:14:16;;;;;;;;;;;;;;;;;;1025493;28;3430;-46
2022/08/11 00:14:54;;;;;;;;;;;;;;;;;;1024224;28;3603;-51
2022/08/11 00:15:26;;;;;;;;;;;;;;;;;;1025463;28;2472;-49
2022/08/11 00:15:56;;;;;;;;;;;;;;;;;;1025418;28;2205;-49
2022/08/11 00:16:27;;;;;;;;;;;;;;;;;;1025184;28;1995;-48
2022/08/11 00:16:57;;;;;;;;;;;;;;;;;;1025984;28;2131;-47
2022/08/11 00:17:29;;;;;;;;;;;;;;;;;;1025456;28;2195;-50
2022/08/11 00:17:59;;;;;;;;;;;;;;;;;;1025472;28;3161;-51
2022/08/11 00:18:39;;;;;;;;;;;;;;;;;;1025269;28;2853;-50
2022/08/11 00:19:09;;;;;;;;;;;;;;;;;;1025798;28;1983;-49
2022/08/11 00:19:42;;;;;;;;;;;;;;;;;;1025986;28;1645;-52
2022/08/11 00:20:14;;;;;;;;;;;;;;;;;;1025866;28;2446;-49
2022/08/11 00:20:44;;;;;;;;;;;;;;;;;;1025304;28;1961;-51
2022/08/11 00:21:15;;;;;;;;;;;;;;;;;;1025281;28;1734;-50
2022/08/11 00:21:45;;;;;;;;;;;;;;;;;;1024450;28;2897;-48
2022/08/11 00:22:20;;;;;;;;;;;;;;;;;;1025660;28;1673;-49
2022/08/11 00:22:50;;;;;;;;;;;;;;;;;;1025611;28;1703;-51
2022/08/11 00:23:20;;;;;;;;;;;;;;;;;;1020348;28;3477;-50
2022/08/11 00:23:52;;;;;;;;;;;;;;;;;;1019389;28;3788;-48
2022/08/11 00:24:23;;;;;;;;;;;;;;;;;;1021096;28;1693;-51
2022/08/11 00:24:53;;;;;;;;;;;;;;;;;;1022072;28;2048;-47
2022/08/11 00:25:24;;;;;;;;;;;;;;;;;;1024611;28;1761;-50
2022/08/11 00:25:55;;;;;;;;;;;;;;;;;;1021494;28;1618;-48
2022/08/11 00:26:27;;;;;;;;;;;;;;;;;;1020652;28;2002;-53
2022/08/11 00:26:58;;;;;;;;;;;;;;;;;;1020873;28;3056;-50
2022/08/11 00:27:35;;;;;;;;;;;;;;;;;;1020742;28;2505;-53
2022/08/11 00:28:22;;;;;;;;;;;;;;;;;;1022693;28;4109;-49
2022/08/11 00:28:53;;;;;;;;;;;;;;;;;;1025526;28;3637;-48
2022/08/11 00:29:23;;;;;;;;;;;;;;;;;;1025453;28;3308;-51
2022/08/11 00:29:53;;;;;;;;;;;;;;;;;;1025771;28;3304;-51
2022/08/11 00:30:24;;;;;;;;;;;;;;;;;;1023516;28;2746;-50
2022/08/11 00:31:09;;;;;;;;;;;;;;;;;;1025878;28;3142;-50
2022/08/11 00:31:51;;;;;;;;;;;;;;;;;;1025571;28;3286;-52
2022/08/11 00:32:21;;;;;;;;;;;;;;;;;;1027647;28;3264;-49
2022/08/11 00:32:54;;;;;;;;;;;;;;;;;;1030032;28;3321;-49
2022/08/11 00:33:30;;;;;;;;;;;;;;;;;;1032930;28;2187;-51
2022/08/11 00:34:01;;;;;;;;;;;;;;;;;;1032479;28;2721;-47
2022/08/11 00:34:34;;;;;;;;;;;;;;;;;;1032352;28;1809;-50
2022/08/11 00:35:07;;;;;;;;;;;;;;;;;;1032209;28;2194;-48
2022/08/11 00:35:37;;;;;;;;;;;;;;;;;;1028959;28;2592;-50
2022/08/11 00:36:08;;;;;;;;;;;;;;;;;;1029710;28;2024;-50
2022/08/11 00:36:39;;;;;;;;;;;;;;;;;;1028725;28;2806;-52
2022/08/11 00:37:10;;;;;;;;;;;;;;;;;;1029994;28;1316;-49
2022/08/11 00:37:44;;;;;;;;;;;;;;;;;;1029085;28;2214;-49
2022/08/11 00:38:15;;;;;;;;;;;;;;;;;;1027827;28;3143;-50
2022/08/11 00:38:52;;;;;;;;;;;;;;;;;;1029737;28;1923;-47
2022/08/11 00:39:23;;;;;;;;;;;;;;;;;;1028573;28;2009;-47
2022/08/11 00:39:54;;;;;;;;;;;;;;;;;;1029104;28;2985;-50
2022/08/11 00:40:29;;;;;;;;;;;;;;;;;;1028699;28;3297;-49
2022/08/11 00:41:18;;;;;;;;;;;;;;;;;;1029365;28;3785;-49
2022/08/11 00:41:58;;;;;;;;;;;;;;;;;;1029837;28;1701;-49
2022/08/11 00:42:42;;;;;;;;;;;;;;;;;;1029482;28;1595;-52
2022/08/11 00:43:20;;;;;;;;;;;;;;;;;;1028024;28;3026;-51
2022/08/11 00:43:56;;;;;;;;;;;;;;;;;;1029382;28;1742;-49
2022/08/11 00:44:29;;;;;;;;;;;;;;;;;;1028757;28;3184;-50
2022/08/11 00:45:09;;;;;;;;;;;;;;;;;;1028911;28;2274;-48
2022/08/11 00:45:42;;;;;;;;;;;;;;;;;;1029572;28;1750;-51
2022/08/11 00:46:28;;;;;;;;;;;;;;;;;;1028519;28;3273;-48
2022/08/11 00:47:06;;;;;;;;;;;;;;;;;;1029735;28;1682;-48
2022/08/11 00:47:43;;;;;;;;;;;;;;;;;;1028358;28;3046;-48
2022/08/11 00:48:27;;;;;;;;;;;;;;;;;;1028319;28;2934;-50
2022/08/11 00:49:16;;;;;;;;;;;;;;;;;;1028755;28;3156;-49
2022/08/11 00:50:04;;;;;;;;;;;;;;;;;;1028610;28;2489;-49
2022/08/11 00:50:41;;;;;;;;;;;;;;;;;;1029714;28;1976;-50
2022/08/11 00:51:23;;;;;;;;;;;;;;;;;;1030003;28;1783;-54
2022/08/11 00:52:16;;;;;;;;;;;;;;;;;;1029065;28;1986;-49
2022/08/11 00:52:52;;;;;;;;;;;;;;;;;;1029111;28;1619;-48
2022/08/11 00:53:41;;;;;;;;;;;;;;;;;;1030328;28;1643;-50
2022/08/11 00:54:25;;;;;;;;;;;;;;;;;;1030137;28;1850;-50
2022/08/11 00:55:01;;;;;;;;;;;;;;;;;;1029104;28;1937;-49
2022/08/11 00:55:41;;;;;;;;;;;;;;;;;;1029027;28;1867;-48
2022/08/11 00:56:23;;;;;;;;;;;;;;;;;;1028585;28;3692;-51
2022/08/11 00:57:10;;;;;;;;;;;;;;;;;;1029676;28;1842;-52
2022/08/11 00:57:46;;;;;;;;;;;;;;;;;;1029180;28;2024;-51
2022/08/11 00:58:35;;;;;;;;;;;;;;;;;;1031901;28;2760;-51
2022/08/11 00:59:23;;;;;;;;;;;;;;;;;;1032528;28;2375;-48
2022/08/11 01:00:01;;;;;;;;;;;;;;;;;;1031967;28;2252;-50
2022/08/11 01:00:33;;;;;;;;;;;;;;;;;;1033224;28;2512;-48
2022/08/11 01:01:03;;;;;;;;;;;;;;;;;;1032748;28;2603;-48
2022/08/11 01:01:37;;;;;;;;;;;;;;;;;;1033868;28;1622;-49
2022/08/11 01:02:16;;;;;;;;;;;;;;;;;;1032829;28;1886;-51
2022/08/11 01:03:05;;;;;;;;;;;;;;;;;;1029139;28;3281;-50
2022/08/11 01:03:45;;;;;;;;;;;;;;;;;;1030064;28;2008;-50
2022/08/11 01:04:28;;;;;;;;;;;;;;;;;;1030275;28;1690;-49
2022/08/11 01:05:16;;;;;;;;;;;;;;;;;;1029825;28;2637;-48
2022/08/11 01:05:52;;;;;;;;;;;;;;;;;;1029092;28;3408;-48
2022/08/11 01:06:28;;;;;;;;;;;;;;;;;;1029458;28;3220;-50
2022/08/11 01:07:17;;;;;;;;;;;;;;;;;;1029222;28;3396;-50
2022/08/11 01:07:57;;;;;;;;;;;;;;;;;;1029956;28;1881;-49
2022/08/11 01:08:28;;;;;;;;;;;;;;;;;;1030135;28;1658;-48
2022/08/11 01:09:19;;;;;;;;;;;;;;;;;;1029750;28;1994;-48
2022/08/11 01:10:02;;;;;;;;;;;;;;;;;;1029789;28;2226;-50
2022/08/11 01:10:38;;;;;;;;;;;;;;;;;;1027701;28;2380;-50
2022/08/11 01:11:23;;;;;;;;;;;;;;;;;;1029536;28;3318;-53
2022/08/11 01:12:12;;;;;;;;;;;;;;;;;;1028695;28;3224;-50
2022/08/11 01:13:02;;;;;;;;;;;;;;;;;;1027927;28;3366;-49
2022/08/11 01:13:49;;;;;;;;;;;;;;;;;;1024587;28;2275;-50
2022/08/11 01:14:38;;;;;;;;;;;;;;;;;;1030290;28;1663;-49
2022/08/11 01:15:27;;;;;;;;;;;;;;;;;;1029058;28;3358;-49
2022/08/11 01:16:07;;;;;;;;;;;;;;;;;;1028403;28;3192;-47
2022/08/11 01:16:40;;;;;;;;;;;;;;;;;;1027928;28;2273;-51
2022/08/11 01:17:10;;;;;;;;;;;;;;;;;;1025021;28;2244;-50
2022/08/11 01:17:40;;;;;;;;;;;;;;;;;;1024908;28;2161;-50
2022/08/11 01:18:19;;;;;;;;;;;;;;;;;;1025770;28;1811;-48
2022/08/11 01:19:09;;;;;;;;;;;;;;;;;;1029086;28;1798;-49
2022/08/11 01:19:50;;;;;;;;;;;;;;;;;;1029444;28;2002;-49
2022/08/11 01:20:46;;;;;;;;;;;;;;;;;;1028098;28;3017;-52
2022/08/11 01:21:22;;;;;;;;;;;;;;;;;;1029667;28;1638;-48
2022/08/11 01:22:14;;;;;;;;;;;;;;;;;;1031333;28;2470;-50
2022/08/11 01:22:44;;;;;;;;;;;;;;;;;;1033432;28;2080;-49
2022/08/11 01:23:33;;;;;;;;;;;;;;;;;;1033056;28;3230;-49
2022/08/11 01:24:22;;;;;;;;;;;;;;;;;;1029723;28;1560;-48
2022/08/11 01:24:56;;;;;;;;;;;;;;;;;;1030073;28;1799;-51
2022/08/11 01:25:26;;;;;;;;;;;;;;;;;;1030400;28;1925;-48
2022/08/11 01:26:11;;;;;;;;;;;;;;;;;;1029820;28;1961;-50
2022/08/11 01:27:00;;;;;;;;;;;;;;;;;;1029328;28;3206;-51
2022/08/11 01:27:40;;;;;;;;;;;;;;;;;;1026712;28;3770;-50
2022/08/11 01:28:39;;;;;;;;;;;;;;;;;;1029856;28;2093;-50
2022/08/11 01:29:25;;;;;;;;;;;;;;;;;;1029967;28;2871;-51
2022/08/11 01:30:06;;;;;;;;;;;;;;;;;;1029710;28;3009;-50
2022/08/11 01:30:47;;;;;;;;;;;;;;;;;;1029394;28;3311;-50
2022/08/11 01:31:46;;;;;;;;;;;;;;;;;;1029454;28;1585;-50
2022/08/11 01:32:42;;;;;;;;;;;;;;;;;;1028389;28;2935;-48
2022/08/11 01:33:32;;;;;;;;;;;;;;;;;;1029404;28;3313;-49
2022/08/11 01:34:12;;;;;;;;;;;;;;;;;;1030096;28;1913;-50
2022/08/11 01:35:04;;;;;;;;;;;;;;;;;;1029389;28;1634;-51
2022/08/11 01:35:53;;;;;;;;;;;;;;;;;;1029958;28;2225;-50
2022/08/11 01:36:42;;;;;;;;;;;;;;;;;;1028170;28;3179;-49
2022/08/11 01:37:22;;;;;;;;;;;;;;;;;;1029909;28;2028;-49
2022/08/11 01:37:52;;;;;;;;;;;;;;;;;;1030350;28;1392;-51
2022/08/11 01:38:37;;;;;;;;;;;;;;;;;;1029736;28;1772;-50
2022/08/11 01:39:13;;;;;;;;;;;;;;;;;;1029881;28;2300;-49
2022/08/11 01:39:52;;;;;;;;;;;;;;;;;;1029031;28;3285;-47
2022/08/11 01:40:34;;;;;;;;;;;;;;;;;;1027947;28;4354;-49
2022/08/11 01:41:20;;;;;;;;;;;;;;;;;;1029221;28;3198;-50
2022/08/11 01:44:57;;;;;;;;;;;;;;;;;;1030191;28;1712;-50
2022/08/11 01:45:42;;;;;;;;;;;;;;;;;;1028743;28;3149;-49
2022/08/11 01:46:21;;;;;;;;;;;;;;;;;;1029012;28;4397;-49
2022/08/11 01:47:49;;;;;;;;;;;;;;;;;;1029211;28;1788;-51
2022/08/11 01:48:04;;;;;;;;;;;;;;;;;;1028608;28;3293;-48
2022/08/11 01:48:43;;;;;;;;;;;;;;;;;;1029706;28;3348;-51
2022/08/11 01:49:20;;;;;;;;;;;;;;;;;;1029852;28;1662;-49
2022/08/11 01:50:11;;;;;;;;;;;;;;;;;;1029583;28;1791;-51
2022/08/11 01:50:41;;;;;;;;;;;;;;;;;;1028672;28;3340;-48
2022/08/11 01:51:18;;;;;;;;;;;;;;;;;;1033696;28;3596;-49
2022/08/11 01:52:01;;;;;;;;;;;;;;;;;;1033213;28;3205;-48
2022/08/11 01:52:50;;;;;;;;;;;;;;;;;;1032401;28;2372;-49
2022/08/11 01:53:27;;;;;;;;;;;;;;;;;;1034200;28;1592;-49
2022/08/11 01:54:08;;;;;;;;;;;;;;;;;;1033512;28;2095;-51
2022/08/11 01:54:41;;;;;;;;;;;;;;;;;;1033571;28;1620;-51
2022/08/11 01:55:18;;;;;;;;;;;;;;;;;;1030238;28;3744;-49
2022/08/11 01:56:07;;;;;;;;;;;;;;;;;;1029239;28;2455;-52
2022/08/11 01:56:55;;;;;;;;;;;;;;;;;;1029708;28;1670;-53
2022/08/11 01:57:43;;;;;;;;;;;;;;;;;;1029307;28;2886;-48
2022/08/11 01:58:34;;;;;;;;;;;;;;;;;;1030741;28;1630;-50
2022/08/11 01:59:24;;;;;;;;;;;;;;;;;;1030499;28;1647;-51
2022/08/11 02:00:15;;;;;;;;;;;;;;;;;;1028709;28;3051;-48
2022/08/11 02:00:51;;;;;;;;;;;;;;;;;;1027342;28;3772;-48
2022/08/11 02:01:43;;;;;;;;;;;;;;;;;;1029496;28;1841;-49
2022/08/11 02:02:44;;;;;;;;;;;;;;;;;;1029863;28;1846;-49
2022/08/11 02:03:19;;;;;;;;;;;;;;;;;;1028050;28;3262;-50
2022/08/11 02:03:54;;;;;;;;;;;;;;;;;;1028985;28;1807;-50
2022/08/11 02:04:30;;;;;;;;;;;;;;;;;;1032682;28;1974;-49
2022/08/11 02:05:13;;;;;;;;;;;;;;;;;;1033029;28;1875;-53
2022/08/11 02:05:44;;;;;;;;;;;;;;;;;;1033171;28;2388;-50
2022/08/11 02:07:19;;;;;;;;;;;;;;;;;;1028087;28;2295;-48
2022/08/11 02:07:49;;;;;;;;;;;;;;;;;;1028072;28;2622;-50
2022/08/11 02:08:20;;;;;;;;;;;;;;;;;;1029156;28;3179;-49
2022/08/11 02:08:56;;;;;;;;;;;;;;;;;;1029810;28;1915;-50
2022/08/11 02:09:45;;;;;;;;;;;;;;;;;;1030053;28;2462;-50
2022/08/11 02:11:29;;;;;;;;;;;;;;;;;;1028165;28;3059;-50
2022/08/11 02:12:12;;;;;;;;;;;;;;;;;;1028449;28;1736;-50
2022/08/11 02:12:45;;;;;;;;;;;;;;;;;;1028540;28;3231;-49
2022/08/11 02:13:23;;;;;;;;;;;;;;;;;;1029660;28;2085;-49
2022/08/11 02:14:06;;;;;;;;;;;;;;;;;;1029474;28;1319;-50
2022/08/11 02:14:45;;;;;;;;;;;;;;;;;;1031978;28;2645;-49
2022/08/11 02:15:27;;;;;;;;;;;;;;;;;;1032102;28;2628;-50
2022/08/11 02:16:12;;;;;;;;;;;;;;;;;;1032898;28;3103;-48
2022/08/11 02:17:06;;;;;;;;;;;;;;;;;;1030192;28;1380;-49
2022/08/11 02:17:39;;;;;;;;;;;;;;;;;;1029381;28;2182;-49
2022/08/11 02:18:15;;;;;;;;;;;;;;;;;;1028562;28;3087;-49
2022/08/11 02:24:13;;;;;;;;;;;;;;;;;;1029477;28;1896;-51
2022/08/11 02:24:48;;;;;;;;;;;;;;;;;;1028505;28;2834;-50
2022/08/11 02:25:30;;;;;;;;;;;;;;;;;;1029133;28;1658;-50
2022/08/11 02:26:07;;;;;;;;;;;;;;;;;;1029085;28;3049;-53
2022/08/11 02:26:43;;;;;;;;;;;;;;;;;;1029876;28;1746;-50
2022/08/11 02:27:17;;;;;;;;;;;;;;;;;;1029766;28;1540;-50
2022/08/11 02:27:50;;;;;;;;;;;;;;;;;;1029139;28;2618;-47
2022/08/11 02:28:27;;;;;;;;;;;;;;;;;;1029969;28;2008;-49
2022/08/11 02:29:16;;;;;;;;;;;;;;;;;;1030509;28;2110;-51
2022/08/11 02:30:06;;;;;;;;;;;;;;;;;;1028698;28;3196;-50
2022/08/11 02:30:38;;;;;;;;;;;;;;;;;;1029484;28;3667;-52
2022/08/11 02:33:23;;;;;;;;;;;;;;;;;;1030645;28;2023;-48
2022/08/11 02:33:58;;;;;;;;;;;;;;;;;;1029697;28;2992;-52
2022/08/11 02:34:38;;;;;;;;;;;;;;;;;;1030310;28;3249;-51
2022/08/11 02:35:27;;;;;;;;;;;;;;;;;;1030236;28;1560;-50
2022/08/11 02:36:07;;;;;;;;;;;;;;;;;;1029418;28;2475;-52
2022/08/11 02:36:43;;;;;;;;;;;;;;;;;;1030186;28;1869;-49
2022/08/11 02:37:23;;;;;;;;;;;;;;;;;;1030253;28;1768;-49
2022/08/11 02:37:56;;;;;;;;;;;;;;;;;;1030816;28;1624;-49
2022/08/11 02:38:42;;;;;;;;;;;;;;;;;;1029986;28;1410;-51
2022/08/11 02:39:13;;;;;;;;;;;;;;;;;;1029507;28;3306;-51
2022/08/11 02:40:02;;;;;;;;;;;;;;;;;;1029784;28;3220;-49
2022/08/11 02:40:35;;;;;;;;;;;;;;;;;;1029605;28;2760;-49
2022/08/11 02:43:01;;;;;;;;;;;;;;;;;;1028981;28;2501;-50
2022/08/11 02:43:48;;;;;;;;;;;;;;;;;;1030877;28;1659;-50
2022/08/11 02:44:37;;;;;;;;;;;;;;;;;;1030691;28;1791;-50
2022/08/11 02:45:29;;;;;;;;;;;;;;;;;;1029831;28;3095;-49
2022/08/11 02:46:15;;;;;;;;;;;;;;;;;;1030589;28;2058;-50
2022/08/11 02:46:45;;;;;;;;;;;;;;;;;;1030773;28;1686;-48
2022/08/11 02:47:30;;;;;;;;;;;;;;;;;;1029829;28;3194;-51
2022/08/11 02:50:04;;;;;;;;;;;;;;;;;;1031175;28;2716;-48
2022/08/11 02:50:54;;;;;;;;;;;;;;;;;;1028987;28;2476;-48
2022/08/11 02:51:52;;;;;;;;;;;;;;;;;;1021010;28;1627;-49
2022/08/11 02:52:41;;;;;;;;;;;;;;;;;;1014935;29;1849;-47
2022/08/11 02:53:41;;;;;;;;;;;;;;;;;;1022597;28;2457;-48
2022/08/11 02:54:20;;;;;;;;;;;;;;;;;;1020647;29;1932;-52
2022/08/11 02:55:09;;;;;;;;;;;;;;;;;;1021374;28;2487;-48
2022/08/11 02:55:51;;;;;;;;;;;;;;;;;;1021205;28;3378;-50
2022/08/11 02:56:36;;;;;;;;;;;;;;;;;;1030532;28;1732;-49
2022/08/11 02:57:25;;;;;;;;;;;;;;;;;;1028748;28;3507;-52
2022/08/11 02:58:02;;;;;;;;;;;;;;;;;;1030161;28;3019;-47
2022/08/11 02:59:49;;;;;;;;;;;;;;;;;;1030580;28;3518;-52
2022/08/11 02:59:53;;;;;;;;;;;;;;;;;;1030493;28;1687;-48
2022/08/11 03:00:24;;;;;;;;;;;;;;;;;;1026277;28;3349;-48
2022/08/11 03:01:03;;;;;;;;;;;;;;;;;;1029320;28;1780;-49
2022/08/11 03:01:44;;;;;;;;;;;;;;;;;;1029414;28;3277;-48
2022/08/11 03:02:23;;;;;;;;;;;;;;;;;;1030273;28;1703;-47
2022/08/11 03:02:53;;;;;;;;;;;;;;;;;;1030517;28;1701;-49
2022/08/11 03:03:38;;;;;;;;;;;;;;;;;;1028945;28;2342;-48
2022/08/11 03:04:16;;;;;;;;;;;;;;;;;;1029083;28;2923;-49
2022/08/11 03:05:07;;;;;;;;;;;;;;;;;;1032599;28;2489;-51
2022/08/11 03:05:52;;;;;;;;;;;;;;;;;;1033368;28;1670;-48
2022/08/11 03:06:27;;;;;;;;;;;;;;;;;;1031702;28;3193;-49
2022/08/11 03:07:00;;;;;;;;;;;;;;;;;;1033085;28;1996;-49
2022/08/11 03:07:35;;;;;;;;;;;;;;;;;;1033430;28;1960;-51
2022/08/11 03:08:24;;;;;;;;;;;;;;;;;;1034467;28;2005;-50
2022/08/11 03:09:03;;;;;;;;;;;;;;;;;;1031140;28;1910;-48
2022/08/11 03:09:36;;;;;;;;;;;;;;;;;;1028922;28;3311;-51
2022/08/11 03:10:10;;;;;;;;;;;;;;;;;;1029878;28;2062;-50
2022/08/11 03:16:43;;;;;;;;;;;;;;;;;;1030548;28;3261;-51
2022/08/11 03:17:08;;;;;;;;;;;;;;;;;;1030678;28;1610;-48
2022/08/11 03:17:42;;;;;;;;;;;;;;;;;;1029753;28;1739;-50
2022/08/11 03:18:12;;;;;;;;;;;;;;;;;;1029883;28;2016;-48
2022/08/11 03:19:09;;;;;;;;;;;;;;;;;;1030057;28;1870;-50
2022/08/11 03:19:50;;;;;;;;;;;;;;;;;;1022950;28;3142;-51
2022/08/11 03:20:26;;;;;;;;;;;;;;;;;;1029529;28;2670;-51
2022/08/11 03:21:00;;;;;;;;;;;;;;;;;;1030501;28;2139;-51
2022/08/11 03:21:36;;;;;;;;;;;;;;;;;;1029990;28;1608;-47
2022/08/11 03:22:18;;;;;;;;;;;;;;;;;;1029794;28;1604;-49
2022/08/11 03:23:03;;;;;;;;;;;;;;;;;;1030093;28;1780;-50
2022/08/11 03:23:49;;;;;;;;;;;;;;;;;;1030280;28;1653;-48
2022/08/11 03:24:22;;;;;;;;;;;;;;;;;;1029570;28;1646;-50
2022/08/11 03:25:05;;;;;;;;;;;;;;;;;;1030066;28;1330;-48
2022/08/11 03:25:41;;;;;;;;;;;;;;;;;;1029635;28;3092;-47
2022/08/11 03:26:29;;;;;;;;;;;;;;;;;;1029964;28;2979;-47
2022/08/11 03:27:12;;;;;;;;;;;;;;;;;;1030091;28;2689;-50
2022/08/11 03:27:56;;;;;;;;;;;;;;;;;;1030546;28;3489;-49
2022/08/11 03:28:35;;;;;;;;;;;;;;;;;;1029478;28;2322;-50
2022/08/11 03:29:14;;;;;;;;;;;;;;;;;;1030539;28;2006;-48
2022/08/11 03:30:03;;;;;;;;;;;;;;;;;;1029921;28;2291;-50
2022/08/11 03:30:40;;;;;;;;;;;;;;;;;;1029413;28;3313;-49
2022/08/11 03:31:28;;;;;;;;;;;;;;;;;;1030456;28;2347;-50
2022/08/11 03:32:23;;;;;;;;;;;;;;;;;;1030563;28;1680;-51
2022/08/11 03:34:01;;;;;;;;;;;;;;;;;;1030403;28;1731;-49
2022/08/11 03:34:36;;;;;;;;;;;;;;;;;;1029652;28;2510;-48
2022/08/11 03:35:08;;;;;;;;;;;;;;;;;;1029715;28;3297;-48
2022/08/11 03:35:53;;;;;;;;;;;;;;;;;;1028591;28;3345;-49
2022/08/11 03:36:26;;;;;;;;;;;;;;;;;;1028419;28;3399;-50
2022/08/11 03:37:04;;;;;;;;;;;;;;;;;;1029225;28;3354;-48
2022/08/11 03:37:50;;;;;;;;;;;;;;;;;;1029114;28;3124;-52
2022/08/11 03:38:24;;;;;;;;;;;;;;;;;;1030139;28;3821;-48
2022/08/11 03:38:54;;;;;;;;;;;;;;;;;;1029921;28;2323;-49
2022/08/11 03:39:28;;;;;;;;;;;;;;;;;;1029769;28;2110;-48
2022/08/11 03:41:41;;;;;;;;;;;;;;;;;;1030086;28;1701;-49
2022/08/11 03:42:11;;;;;;;;;;;;;;;;;;1027778;28;3185;-48
2022/08/11 03:42:46;;;;;;;;;;;;;;;;;;1030864;28;2487;-50
2022/08/11 03:43:22;;;;;;;;;;;;;;;;;;1033935;28;1477;-48
2022/08/11 03:43:57;;;;;;;;;;;;;;;;;;1032371;28;3240;-48
2022/08/11 03:44:46;;;;;;;;;;;;;;;;;;1029351;28;1468;-49
2022/08/11 03:45:16;;;;;;;;;;;;;;;;;;1029159;28;2723;-49
2022/08/11 03:45:55;;;;;;;;;;;;;;;;;;1028208;28;3221;-49
2022/08/11 03:46:33;;;;;;;;;;;;;;;;;;1033154;28;3159;-49
2022/08/11 03:47:26;;;;;;;;;;;;;;;;;;1033985;28;2220;-47
2022/08/11 03:48:09;;;;;;;;;;;;;;;;;;1032866;28;2338;-51
2022/08/11 03:48:47;;;;;;;;;;;;;;;;;;1030326;28;2856;-50
2022/08/11 03:49:38;;;;;;;;;;;;;;;;;;1030716;28;1700;-49
2022/08/11 03:50:11;;;;;;;;;;;;;;;;;;1028932;28;2624;-50
2022/08/11 03:50:50;;;;;;;;;;;;;;;;;;1030183;28;1946;-49
2022/08/11 03:51:34;;;;;;;;;;;;;;;;;;1030094;28;2431;-49
2022/08/11 03:52:04;;;;;;;;;;;;;;;;;;1028553;28;2079;-49
2022/08/11 03:52:34;;;;;;;;;;;;;;;;;;1029880;28;1594;-50
2022/08/11 03:53:27;;;;;;;;;;;;;;;;;;1029299;28;2851;-50
2022/08/11 03:54:03;;;;;;;;;;;;;;;;;;1029711;28;1676;-49
2022/08/11 03:55:00;;;;;;;;;;;;;;;;;;1029280;28;2274;-51
2022/08/11 03:55:46;;;;;;;;;;;;;;;;;;1027906;28;3170;-47
2022/08/11 03:56:36;;;;;;;;;;;;;;;;;;1028053;28;2213;-50
2022/08/11 03:57:22;;;;;;;;;;;;;;;;;;1024222;28;3780;-47
2022/08/11 03:58:11;;;;;;;;;;;;;;;;;;1025647;28;3144;-53
2022/08/11 03:58:54;;;;;;;;;;;;;;;;;;1033246;28;1291;-48
2022/08/11 03:59:25;;;;;;;;;;;;;;;;;;1032327;28;3919;-50
2022/08/11 04:00:03;;;;;;;;;;;;;;;;;;1033817;28;1886;-51
2022/08/11 04:00:36;;;;;;;;;;;;;;;;;;1030112;28;3546;-50
2022/08/11 04:01:19;;;;;;;;;;;;;;;;;;1029885;28;2999;-47
2022/08/11 04:01:49;;;;;;;;;;;;;;;;;;1032134;28;2722;-50
2022/08/11 04:02:44;;;;;;;;;;;;;;;;;;1032510;28;2248;-52
2022/08/11 04:03:45;;;;;;;;;;;;;;;;;;1034324;28;1332;-47
2022/08/11 04:04:44;;;;;;;;;;;;;;;;;;1030224;28;1636;-49
2022/08/11 04:05:33;;;;;;;;;;;;;;;;;;1029730;28;3215;-51
2022/08/11 04:06:13;;;;;;;;;;;;;;;;;;1030090;28;1579;-50
2022/08/11 04:06:52;;;;;;;;;;;;;;;;;;1029350;28;1967;-49
2022/08/11 04:07:30;;;;;;;;;;;;;;;;;;1030056;28;1805;-49
2022/08/11 04:08:03;;;;;;;;;;;;;;;;;;1029462;28;1728;-47
2022/08/11 04:08:52;;;;;;;;;;;;;;;;;;1029380;28;1828;-48
2022/08/11 04:09:22;;;;;;;;;;;;;;;;;;1029854;28;3187;-52
2022/08/11 04:10:11;;;;;;;;;;;;;;;;;;1028988;28;3065;-48
2022/08/11 04:10:45;;;;;;;;;;;;;;;;;;1029175;28;2801;-51
2022/08/11 04:11:34;;;;;;;;;;;;;;;;;;1029823;28;2041;-48
2022/08/11 04:12:27;;;;;;;;;;;;;;;;;;1029607;28;1664;-49
2022/08/11 04:12:57;;;;;;;;;;;;;;;;;;1023414;28;3328;-50
2022/08/11 04:13:53;;;;;;;;;;;;;;;;;;1025510;28;2000;-50
2022/08/11 04:15:59;;;;;;;;;;;;;;;;;;1029023;28;3005;-50
2022/08/11 04:16:39;;;;;;;;;;;;;;;;;;1029752;28;1962;-49
2022/08/11 04:17:28;;;;;;;;;;;;;;;;;;1029892;28;1338;-48
2022/08/11 04:18:17;;;;;;;;;;;;;;;;;;1029950;28;1994;-49
2022/08/11 04:19:05;;;;;;;;;;;;;;;;;;1030058;28;1600;-49
2022/08/11 04:19:50;;;;;;;;;;;;;;;;;;1029955;28;1311;-50
2022/08/11 04:20:40;;;;;;;;;;;;;;;;;;1029504;28;2568;-49
2022/08/11 04:21:19;;;;;;;;;;;;;;;;;;1029639;28;2157;-47
2022/08/11 04:21:52;;;;;;;;;;;;;;;;;;1029566;28;2104;-49
2022/08/11 04:22:31;;;;;;;;;;;;;;;;;;1029092;28;1349;-49
2022/08/11 04:23:07;;;;;;;;;;;;;;;;;;1030170;28;1888;-49
2022/08/11 04:24:02;;;;;;;;;;;;;;;;;;1033478;28;1889;-49
2022/08/11 04:24:41;;;;;;;;;;;;;;;;;;1028658;28;1618;-50
2022/08/11 04:25:24;;;;;;;;;;;;;;;;;;1028867;28;3109;-48
2022/08/11 04:26:14;;;;;;;;;;;;;;;;;;1028473;28;1857;-50
2022/08/11 04:26:59;;;;;;;;;;;;;;;;;;1029023;28;1650;-51
2022/08/11 04:27:41;;;;;;;;;;;;;;;;;;1029960;28;1552;-47
2022/08/11 04:28:26;;;;;;;;;;;;;;;;;;1028459;28;3196;-51
2022/08/11 04:29:09;;;;;;;;;;;;;;;;;;1028306;28;3276;-47
2022/08/11 04:29:52;;;;;;;;;;;;;;;;;;1029377;28;3528;-50
2022/08/11 04:30:26;;;;;;;;;;;;;;;;;;1027404;28;2694;-51
2022/08/11 04:31:05;;;;;;;;;;;;;;;;;;1029307;28;2063;-49
2022/08/11 04:32:06;;;;;;;;;;;;;;;;;;1026017;28;3235;-49
2022/08/11 04:32:49;;;;;;;;;;;;;;;;;;1029351;28;1585;-50
2022/08/11 04:33:22;;;;;;;;;;;;;;;;;;1029402;28;2020;-47
2022/08/11 04:34:13;;;;;;;;;;;;;;;;;;1029472;28;1698;-50
2022/08/11 04:34:57;;;;;;;;;;;;;;;;;;1016453;28;1727;-47
2022/08/11 04:35:46;;;;;;;;;;;;;;;;;;1029621;28;1975;-50
2022/08/11 04:37:30;;;;;;;;;;;;;;;;;;1029438;28;1884;-50
2022/08/11 04:38:11;;;;;;;;;;;;;;;;;;1028340;28;4485;-49
2022/08/11 04:39:00;;;;;;;;;;;;;;;;;;1028009;28;3652;-51
2022/08/11 04:39:49;;;;;;;;;;;;;;;;;;1027550;28;3298;-51
2022/08/11 04:40:25;;;;;;;;;;;;;;;;;;1026117;28;3775;-50
2022/08/11 04:41:15;;;;;;;;;;;;;;;;;;1026158;28;3523;-49
2022/08/11 04:44:01;;;;;;;;;;;;;;;;;;1027598;28;3842;-48
2022/08/11 04:44:37;;;;;;;;;;;;;;;;;;1028696;28;3245;-48
2022/08/11 04:45:19;;;;;;;;;;;;;;;;;;1026351;28;4579;-48
2022/08/11 04:46:07;;;;;;;;;;;;;;;;;;1026570;28;4345;-49
2022/08/11 04:46:56;;;;;;;;;;;;;;;;;;1025537;28;4429;-50
2022/08/11 05:01:39;;;;;;;;;;;;;;;;;;1030455;28;1664;-49
2022/08/11 05:02:22;;;;;;;;;;;;;;;;;;1029724;28;1657;-50
2022/08/11 05:02:58;;;;;;;;;;;;;;;;;;1028132;28;2881;-48
2022/08/11 05:03:28;;;;;;;;;;;;;;;;;;1028510;28;3333;-51
2022/08/11 05:05:31;;;;;;;;;;;;;;;;;;1025375;28;2390;-49
2022/08/11 05:06:05;;;;;;;;;;;;;;;;;;1028842;28;2695;-49
2022/08/11 05:06:44;;;;;;;;;;;;;;;;;;1029404;28;2724;-49
2022/08/11 05:07:28;;;;;;;;;;;;;;;;;;1027433;28;3983;-50
2022/08/11 05:08:01;;;;;;;;;;;;;;;;;;1032695;28;4545;-50
2022/08/11 05:08:41;;;;;;;;;;;;;;;;;;1032223;28;3431;-51
2022/08/11 05:09:20;;;;;;;;;;;;;;;;;;1032755;28;2565;-49
2022/08/11 05:10:09;;;;;;;;;;;;;;;;;;1029589;28;3716;-48
2022/08/11 05:10:39;;;;;;;;;;;;;;;;;;1029094;28;3706;-47
2022/08/11 05:11:25;;;;;;;;;;;;;;;;;;1029193;28;1457;-50
2022/08/11 05:12:19;;;;;;;;;;;;;;;;;;1027022;28;3736;-50
2022/08/11 05:34:53;;;;;;;;;;;;;;;;;;1029265;28;1741;-48
2022/08/11 05:35:26;;;;;;;;;;;;;;;;;;1026679;28;3350;-49
2022/08/11 05:36:04;;;;;;;;;;;;;;;;;;1028165;28;3376;-48
2022/08/11 05:36:40;;;;;;;;;;;;;;;;;;1029903;28;1640;-49
2022/08/11 05:37:32;;;;;;;;;;;;;;;;;;1027106;28;3378;-49
2022/08/11 05:56:15;;;;;;;;;;;;;;;;;;1030003;28;3306;-49
2022/08/11 05:56:56;;;;;;;;;;;;;;;;;;1032216;28;1858;-48
2022/08/11 05:57:28;;;;;;;;;;;;;;;;;;1033056;28;1898;-50
2022/08/11 05:58:00;;;;;;;;;;;;;;;;;;1032077;28;2745;-50
2022/08/11 05:58:41;;;;;;;;;;;;;;;;;;1032016;28;2072;-52
2022/08/11 05:59:15;;;;;;;;;;;;;;;;;;1030355;28;2845;-49
2022/08/11 05:59:46;;;;;;;;;;;;;;;;;;1028186;28;2849;-50
2022/08/11 06:00:17;;;;;;;;;;;;;;;;;;1029670;28;1602;-47
2022/08/11 06:00:48;;;;;;;;;;;;;;;;;;1029226;28;1783;-48
2022/08/11 06:01:23;;;;;;;;;;;;;;;;;;1027086;28;3232;-50
2022/08/11 06:01:58;;;;;;;;;;;;;;;;;;1026443;28;4246;-47
2022/08/11 06:02:29;;;;;;;;;;;;;;;;;;1029349;28;3278;-49
2022/08/11 06:03:02;;;;;;;;;;;;;;;;;;1026872;28;4330;-47